createdAt,value
2019-03-26T00:00:51.724Z,99.664307
2019-03-26T00:06:14.396Z,99.993896
2019-03-26T00:11:37.064Z,99.993896
2019-03-26T00:16:59.776Z,99.993896
2019-03-26T00:22:22.588Z,99.993896
2019-03-26T00:27:45.320Z,99.993896
2019-03-26T00:33:07.967Z,99.993896
2019-03-26T00:38:30.653Z,99.993896
2019-03-26T00:43:53.399Z,99.993896
2019-03-26T00:49:16.116Z,99.993896
2019-03-26T00:54:38.734Z,99.993896
2019-03-26T01:00:01.395Z,99.993896
2019-03-26T01:05:24.151Z,99.993896
2019-03-26T01:10:46.994Z,99.993896
2019-03-26T01:16:09.981Z,99.993896
2019-03-26T01:21:33.005Z,99.993896
2019-03-26T01:26:55.687Z,99.993896
2019-03-26T01:32:18.378Z,99.993896
2019-03-26T01:37:41.120Z,99.993896
2019-03-26T01:43:03.865Z,99.993896
2019-03-26T01:48:28.371Z,99.560547
2019-03-26T01:53:51.110Z,98.730469
2019-03-26T01:59:13.972Z,98.00415
2019-03-26T02:04:36.713Z,98.31543
2019-03-26T02:09:59.384Z,98.10791
2019-03-26T02:15:22.358Z,98.675537
2019-03-26T02:20:45.729Z,98.31543
2019-03-26T02:26:08.405Z,98.364258
2019-03-26T02:31:31.054Z,98.364258
2019-03-26T02:36:53.723Z,98.675537
2019-03-26T02:42:16.417Z,98.21167
2019-03-26T02:47:39.180Z,98.052979
2019-03-26T02:53:01.843Z,98.260498
2019-03-26T02:58:24.488Z,98.10791
2019-03-26T03:03:47.159Z,97.070312
2019-03-26T03:09:09.836Z,97.277832
2019-03-26T03:14:32.485Z,97.381592
2019-03-26T03:19:55.228Z,97.174072
2019-03-26T03:25:17.879Z,96.240234
2019-03-26T03:30:40.624Z,96.759033
2019-03-26T03:36:03.272Z,96.862793
2019-03-26T03:41:26.138Z,95.678711
2019-03-26T03:46:48.833Z,96.032715
2019-03-26T03:52:11.497Z,96.655273
2019-03-26T03:57:34.180Z,96.032715
2019-03-26T04:02:57.525Z,95.98999
2019-03-26T04:08:20.158Z,96.032715
2019-03-26T04:13:42.837Z,96.655273
2019-03-26T04:19:05.466Z,96.966553
2019-03-26T04:24:28.164Z,95.056152
2019-03-26T04:29:50.853Z,93.292236
2019-03-26T04:35:13.540Z,92.675781
2019-03-26T04:40:36.249Z,92.883301
2019-03-26T04:46:00.099Z,94.018555
2019-03-26T04:51:22.767Z,94.537354
2019-03-26T04:56:45.469Z,93.95752
2019-03-26T05:02:09.119Z,92.718506
2019-03-26T05:07:31.770Z,94.683838
2019-03-26T05:12:54.460Z,94.580078
2019-03-26T05:18:17.259Z,94.787598
2019-03-26T05:23:41.936Z,91.638184
2019-03-26T05:29:04.705Z,89.562988
2019-03-26T05:34:27.468Z,90.765381
2019-03-26T05:39:50.240Z,91.534424
2019-03-26T05:45:13.060Z,91.680908
2019-03-26T05:50:35.794Z,91.430664
2019-03-26T05:55:58.443Z,93.084717
2019-03-26T06:01:21.134Z,91.430664
2019-03-26T06:06:43.835Z,89.147949
2019-03-26T06:12:06.544Z,90.869141
2019-03-26T06:17:29.351Z,89.068604
2019-03-26T06:22:52.078Z,87.573242
2019-03-26T06:28:14.762Z,86.437988
2019-03-26T06:33:37.503Z,87.780762
2019-03-26T06:39:00.237Z,90.515137
2019-03-26T06:44:22.940Z,89.440918
2019-03-26T06:49:45.628Z,88.818359
2019-03-26T06:55:08.269Z,89.440918
2019-03-26T07:00:30.921Z,87.536621
2019-03-26T07:05:53.855Z,88.879395
2019-03-26T07:11:16.572Z,88.568115
2019-03-26T07:16:39.314Z,85.906982
2019-03-26T07:22:01.958Z,83.03833
2019-03-26T07:27:24.617Z,82.794189
2019-03-26T07:32:47.344Z,82.067871
2019-03-26T07:38:09.970Z,82.891846
2019-03-26T07:43:34.498Z,80.584717
2019-03-26T07:48:57.171Z,81.414795
2019-03-26T07:54:19.875Z,83.190918
2019-03-26T07:59:42.679Z,80.859375
2019-03-26T08:05:05.249Z,85.296631
2019-03-26T08:10:28.635Z,84.094238
2019-03-26T08:15:51.389Z,84.265137
2019-03-26T08:21:14.006Z,82.751465
2019-03-26T08:26:36.734Z,83.813477
2019-03-26T08:31:59.464Z,86.016846
2019-03-26T08:37:22.164Z,86.816406
2019-03-26T08:42:44.862Z,87.335205
2019-03-26T08:48:07.629Z,89.355469
2019-03-26T08:53:31.318Z,89.129639
2019-03-26T08:58:54.019Z,89.855957
2019-03-26T09:04:16.697Z,88.201904
2019-03-26T09:09:39.914Z,87.95166
2019-03-26T09:15:02.353Z,86.676025
2019-03-26T09:20:25.075Z,88.323975
2019-03-26T09:25:47.996Z,88.781738
2019-03-26T09:31:10.784Z,90.185547
2019-03-26T09:36:33.457Z,91.625977
2019-03-26T09:41:56.113Z,90.655518
2019-03-26T09:47:18.878Z,88.183594
2019-03-26T09:52:42.367Z,85.534668
2019-03-26T09:58:05.101Z,86.315918
2019-03-26T10:03:27.873Z,84.564209
2019-03-26T10:08:52.528Z,82.885742
2019-03-26T10:14:13.354Z,87.115479
2019-03-26T10:19:36.090Z,86.16333
2019-03-26T10:24:58.822Z,88.061523
2019-03-26T10:30:24.585Z,87.976074
2019-03-26T10:35:44.233Z,87.1521
2019-03-26T10:41:06.912Z,86.212158
2019-03-26T10:46:29.554Z,87.011719
2019-03-26T10:51:52.251Z,88.079834
2019-03-26T10:57:15.906Z,85.614014
2019-03-26T11:02:38.540Z,85.858154
2019-03-26T11:08:01.236Z,87.133789
2019-03-26T11:13:24.152Z,89.544678
2019-03-26T11:18:47.064Z,94.519043
2019-03-26T11:24:09.805Z,96.582031
2019-03-26T11:29:32.619Z,96.887207
2019-03-26T11:34:55.549Z,96.636963
2019-03-26T11:40:18.234Z,96.179199
2019-03-26T11:45:41.071Z,96.459961
2019-03-26T11:51:04.505Z,94.592285
2019-03-26T11:56:27.277Z,94.384766
2019-03-26T12:01:52.421Z,94.384766
2019-03-26T12:07:12.784Z,94.812012
2019-03-26T12:12:35.706Z,94.561768
2019-03-26T12:17:59.026Z,92.901611
2019-03-26T12:23:22.588Z,94.604492
2019-03-26T12:28:45.329Z,93.841553
2019-03-26T12:34:08.072Z,91.827393
2019-03-26T12:39:30.843Z,92.138672
2019-03-26T12:44:53.517Z,90.655518
2019-03-26T12:50:16.189Z,93.518066
2019-03-26T12:55:38.893Z,95.666504
2019-03-26T13:01:01.543Z,96.240234
2019-03-26T13:06:24.287Z,93.768311
2019-03-26T13:11:47.510Z,94.342041
2019-03-26T13:17:10.968Z,95.88623
2019-03-26T13:22:33.673Z,94.384766
2019-03-26T13:27:56.450Z,94.488525
2019-03-26T13:33:19.153Z,94.238281
2019-03-26T13:38:42.115Z,94.342041
2019-03-26T13:44:04.903Z,95.166016
2019-03-26T13:49:28.183Z,96.09375
2019-03-26T13:54:50.837Z,93.621826
2019-03-26T14:00:13.520Z,93.829346
2019-03-26T14:05:36.181Z,94.445801
2019-03-26T14:10:58.889Z,94.030762
2019-03-26T14:16:21.547Z,94.030762
2019-03-26T14:21:44.404Z,93.109131
2019-03-26T14:27:09.104Z,94.030762
2019-03-26T14:32:31.768Z,93.371582
2019-03-26T14:37:54.637Z,93.884277
2019-03-26T14:43:17.356Z,93.164062
2019-03-26T14:48:40.022Z,93.060303
2019-03-26T14:54:02.649Z,92.712402
2019-03-26T14:59:25.315Z,92.962646
2019-03-26T15:04:48.034Z,92.285156
2019-03-26T15:10:10.704Z,93.621826
2019-03-26T15:15:36.456Z,93.310547
2019-03-26T15:20:56.251Z,94.07959
2019-03-26T15:26:19.019Z,94.696045
2019-03-26T15:31:41.929Z,93.87207
2019-03-26T15:37:04.588Z,93.933105
2019-03-26T15:42:27.235Z,93.829346
2019-03-26T15:47:50.062Z,93.621826
2019-03-26T15:53:13.223Z,93.109131
2019-03-26T15:58:35.868Z,92.382812
2019-03-26T16:03:58.494Z,93.206787
2019-03-26T16:09:21.192Z,92.382812
2019-03-26T16:14:43.805Z,91.766357
2019-03-26T16:20:06.509Z,93.206787
2019-03-26T16:25:29.373Z,93.206787
2019-03-26T16:30:52.158Z,94.238281
2019-03-26T16:36:14.916Z,91.973877
2019-03-26T16:41:48.269Z,92.590332
2019-03-26T16:47:03.177Z,93.97583
2019-03-26T16:52:26.699Z,96.282959
2019-03-26T16:57:48.551Z,97.009277
2019-03-26T17:03:11.209Z,97.009277
2019-03-26T17:08:34.901Z,97.729492
2019-03-26T17:13:59.477Z,97.521973
2019-03-26T17:19:22.189Z,97.009277
2019-03-26T17:24:44.861Z,96.282959
2019-03-26T17:30:07.519Z,95.050049
2019-03-26T17:35:30.426Z,94.573975
2019-03-26T17:40:54.116Z,94.372559
2019-03-26T17:46:16.957Z,95.196533
2019-03-26T17:51:40.890Z,93.896484
2019-03-26T17:57:02.473Z,94.415283
2019-03-26T18:02:25.235Z,94.720459
2019-03-26T18:07:47.962Z,95.343018
2019-03-26T18:13:10.692Z,95.343018
2019-03-26T18:18:33.644Z,96.166992
2019-03-26T18:23:56.490Z,96.624756
2019-03-26T18:29:19.242Z,96.624756
2019-03-26T18:34:42.112Z,97.55249
2019-03-26T18:40:04.843Z,98.114014
2019-03-26T18:45:27.565Z,98.944092
2019-03-26T18:50:50.348Z,99.713135
2019-03-26T18:56:13.669Z,99.993896
2019-03-26T19:01:36.365Z,99.560547
2019-03-26T19:06:59.118Z,98.999023
2019-03-26T19:12:22.778Z,99.353027
2019-03-26T19:17:45.877Z,99.664307
2019-03-26T19:23:08.603Z,99.975586
2019-03-26T19:28:31.275Z,99.993896
2019-03-26T19:33:55.522Z,99.993896
2019-03-26T19:39:18.713Z,99.993896
2019-03-26T19:44:41.999Z,99.993896
2019-03-26T19:50:04.720Z,99.975586
2019-03-26T19:55:26.565Z,99.816895
2019-03-26T20:00:52.402Z,99.993896
2019-03-26T20:06:15.376Z,99.993896
2019-03-26T20:11:38.630Z,99.993896
2019-03-26T20:17:01.422Z,99.993896
2019-03-26T20:22:24.402Z,99.993896
2019-03-26T20:27:47.351Z,99.993896
2019-03-26T20:33:10.112Z,99.993896
2019-03-26T20:38:32.825Z,99.993896
2019-03-26T20:43:56.490Z,99.993896
2019-03-26T20:49:19.283Z,99.993896
2019-03-26T20:54:42.082Z,99.993896
2019-03-26T21:00:04.791Z,99.993896
2019-03-26T21:05:27.816Z,99.993896
2019-03-26T21:10:50.586Z,98.986816
2019-03-26T21:16:13.282Z,98.883057
2019-03-26T21:21:35.142Z,97.851562
2019-03-26T21:26:57.912Z,96.30127
2019-03-26T21:32:20.737Z,95.166016
2019-03-26T21:37:43.543Z,94.604492
2019-03-26T21:43:06.408Z,95.166016
2019-03-26T21:48:29.171Z,96.240234
2019-03-26T21:53:51.805Z,96.508789
2019-03-26T21:59:14.484Z,96.09375
2019-03-26T22:04:37.235Z,97.277832
2019-03-26T22:09:59.916Z,98.205566
2019-03-26T22:15:22.607Z,97.790527
2019-03-26T22:20:45.275Z,98.101807
2019-03-26T22:26:08.799Z,97.381592
2019-03-26T22:31:31.424Z,98.352051
2019-03-26T22:36:55.150Z,98.455811
2019-03-26T22:42:17.837Z,98.455811
2019-03-26T22:47:40.515Z,97.631836
2019-03-26T22:53:03.348Z,96.966553
2019-03-26T22:58:26.806Z,97.320557
2019-03-26T23:03:50.102Z,97.943115
2019-03-26T23:09:12.745Z,98.254395
2019-03-26T23:14:44.728Z,99.078369
2019-03-26T23:19:59.046Z,98.974609
2019-03-26T23:25:21.767Z,97.174072
2019-03-26T23:30:45.270Z,96.136475
2019-03-26T23:36:07.949Z,96.551514
2019-03-26T23:41:30.891Z,96.551514
2019-03-26T23:46:55.319Z,96.697998
2019-03-26T23:52:18.062Z,97.424316
2019-03-26T23:57:40.686Z,97.424316
